Time;durP1;ratioP1;P1;durP2;ratioP2;P2;SDS_P1;SDS_P2;PMS_P1;PMS_P2;Temp;Humidity;BMP_temperature;BMP_pressure;BME280_temperature;BME280_humidity;BME280_pressure;Samples;Min_cycle;Max_cycle;Signal;HPM_P1;HPM_P2
2021/12/07 00:01:24;;;;;;;;;0.75;0.25;;;;;;;;5038167;28;11454;-77
2021/12/07 00:03:52;;;;;;;;;1.00;1.00;;;;;;;;5045950;28;12430;-77
2021/12/07 00:06:20;;;;;;;;;0.00;0.00;;;;;;;;5027416;28;12184;-76
2021/12/07 00:08:54;;;;;;;;;1.75;1.00;;;;;;;;5043414;28;11412;-76
2021/12/07 00:11:21;;;;;;;;;0.50;0.50;;;;;;;;5035118;28;11412;-77
2021/12/07 00:13:49;;;;;;;;;2.75;2.75;;;;;;;;5050852;28;11386;-76
2021/12/07 00:16:18;;;;;;;;;2.00;2.00;;;;;;;;5037700;28;11427;-76
2021/12/07 00:18:47;;;;;;;;;1.00;1.00;;;;;;;;5036521;28;11403;-77
2021/12/07 00:21:16;;;;;;;;;2.00;2.00;;;;;;;;5041813;28;11410;-77
2021/12/07 00:23:44;;;;;;;;;1.00;1.00;;;;;;;;5031682;28;11402;-76
2021/12/07 00:26:12;;;;;;;;;1.00;1.00;;;;;;;;5038963;28;11523;-77
2021/12/07 00:28:40;;;;;;;;;1.00;1.00;;;;;;;;5037935;28;11398;-78
2021/12/07 00:31:14;;;;;;;;;1.00;1.00;;;;;;;;5035097;28;11361;-77
2021/12/07 00:33:47;;;;;;;;;2.00;1.00;;;;;;;;5032714;28;11403;-78
2021/12/07 00:36:15;;;;;;;;;2.00;2.00;;;;;;;;5035296;28;12312;-77
2021/12/07 00:38:42;;;;;;;;;3.00;0.75;;;;;;;;5046549;28;11433;-77
2021/12/07 00:41:10;;;;;;;;;3.50;1.00;;;;;;;;5043267;28;11501;-79
2021/12/07 00:43:38;;;;;;;;;1.00;1.00;;;;;;;;5034865;28;11410;-77
2021/12/07 00:46:08;;;;;;;;;1.00;1.00;;;;;;;;5050664;28;11486;-76
2021/12/07 00:48:36;;;;;;;;;1.00;1.00;;;;;;;;5045328;28;11393;-76
2021/12/07 00:51:03;;;;;;;;;5.00;1.00;;;;;;;;5039681;28;11412;-76
2021/12/07 00:53:31;;;;;;;;;4.00;2.00;;;;;;;;5044056;28;11441;-78
2021/12/07 00:56:01;;;;;;;;;2.75;1.75;;;;;;;;5046884;28;11520;-77
2021/12/07 00:58:29;;;;;;;;;0.00;0.00;;;;;;;;5042631;28;11415;-76
2021/12/07 01:01:00;;;;;;;;;2.75;0.75;;;;;;;;5046593;28;11380;-76
2021/12/07 01:03:29;;;;;;;;;1.00;1.00;;;;;;;;5045221;28;11398;-77
2021/12/07 01:06:06;;;;;;;;;1.50;1.00;;;;;;;;5041871;28;11399;-77
2021/12/07 01:08:57;;;;;;;;;0.75;0.75;;;;;;;;5030934;28;11411;-78
2021/12/07 01:25:13;;;;;;;;;4.00;1.50;;;;;;;;5048716;28;11438;-76
2021/12/07 01:27:41;;;;;;;;;0.00;0.00;;;;;;;;5047066;28;12272;-78
2021/12/07 01:30:15;;;;;;;;;0.00;0.00;;;;;;;;5041814;28;11589;-77
2021/12/07 01:33:01;;;;;;;;;1.75;1.75;;;;;;;;5041176;28;11473;-78
2021/12/07 01:35:53;;;;;;;;;0.75;0.75;;;;;;;;5042456;28;11438;-78
2021/12/07 01:41:18;;;;;;;;;0.00;0.00;;;;;;;;5033067;28;11575;-76
2021/12/07 02:00:17;;;;;;;;;0.75;0.75;;;;;;;;5042021;28;11456;-76
2021/12/07 02:02:45;;;;;;;;;2.00;0.00;;;;;;;;5046900;28;11455;-77
2021/12/07 02:05:14;;;;;;;;;6.75;0.50;;;;;;;;5027521;28;11606;-77
2021/12/07 02:07:41;;;;;;;;;2.00;0.00;;;;;;;;5042868;28;11439;-76
2021/12/07 02:10:15;;;;;;;;;1.00;1.00;;;;;;;;5045123;28;11569;-76
2021/12/07 02:12:44;;;;;;;;;5.50;1.25;;;;;;;;5042835;28;11442;-76
2021/12/07 02:15:16;;;;;;;;;4.50;2.00;;;;;;;;5045522;28;12227;-78
2021/12/07 02:17:43;;;;;;;;;1.25;1.25;;;;;;;;5042417;28;11464;-77
2021/12/07 02:20:13;;;;;;;;;1.00;1.00;;;;;;;;5041855;28;11418;-77
2021/12/07 02:22:42;;;;;;;;;2.00;2.00;;;;;;;;5049281;28;11445;-78
2021/12/07 02:25:12;;;;;;;;;2.00;1.00;;;;;;;;5041500;28;11447;-77
2021/12/07 02:27:40;;;;;;;;;0.75;0.00;;;;;;;;5048694;28;11401;-77
2021/12/07 02:30:11;;;;;;;;;4.25;2.50;;;;;;;;5045515;28;11370;-76
2021/12/07 02:32:39;;;;;;;;;1.25;1.25;;;;;;;;5042200;28;11565;-77
2021/12/07 02:35:09;;;;;;;;;1.75;1.00;;;;;;;;5049313;28;11516;-76
2021/12/07 02:37:37;;;;;;;;;4.00;1.00;;;;;;;;5046214;28;11417;-76
2021/12/07 02:40:08;;;;;;;;;2.50;2.00;;;;;;;;5046126;28;11448;-75
2021/12/07 02:42:35;;;;;;;;;1.00;1.00;;;;;;;;5045637;28;12209;-76
2021/12/07 02:45:05;;;;;;;;;4.50;2.00;;;;;;;;5038448;28;11410;-77
2021/12/07 02:47:34;;;;;;;;;5.00;2.00;;;;;;;;5048149;28;11440;-77
2021/12/07 02:50:01;;;;;;;;;1.50;1.50;;;;;;;;5043326;28;11505;-78
2021/12/07 02:52:29;;;;;;;;;3.50;2.00;;;;;;;;5045057;28;11517;-78
2021/12/07 02:54:56;;;;;;;;;1.50;1.50;;;;;;;;5044049;28;11402;-77
2021/12/07 02:57:25;;;;;;;;;4.25;2.00;;;;;;;;5047475;28;11537;-76
2021/12/07 02:59:59;;;;;;;;;1.00;1.00;;;;;;;;5042226;28;11435;-77
2021/12/07 03:02:28;;;;;;;;;1.50;1.50;;;;;;;;5044279;28;11360;-77
2021/12/07 03:05:02;;;;;;;;;1.00;1.00;;;;;;;;5041464;28;11513;-77
2021/12/07 03:07:45;;;;;;;;;1.00;1.00;;;;;;;;5040914;28;11438;-77
2021/12/07 03:26:40;;;;;;;;;0.00;0.00;;;;;;;;5030368;28;11375;-77
2021/12/07 03:29:09;;;;;;;;;1.50;1.25;;;;;;;;5045030;28;11478;-78
2021/12/07 03:34:24;;;;;;;;;3.50;0.75;;;;;;;;4997841;28;11631;-78
2021/12/07 03:36:52;;;;;;;;;1.00;1.00;;;;;;;;5044723;28;11498;-77
2021/12/07 03:39:19;;;;;;;;;0.00;0.00;;;;;;;;5056659;28;11487;-77
2021/12/07 03:41:47;;;;;;;;;0.00;0.00;;;;;;;;5041996;28;11444;-77
2021/12/07 03:44:16;;;;;;;;;1.00;1.00;;;;;;;;5053203;28;11595;-77
2021/12/07 03:46:43;;;;;;;;;0.75;0.00;;;;;;;;5044471;28;12247;-77
2021/12/07 03:49:10;;;;;;;;;0.25;0.25;;;;;;;;5048082;28;11453;-78
2021/12/07 03:51:38;;;;;;;;;2.50;1.00;;;;;;;;5048075;28;11455;-78
2021/12/07 03:54:06;;;;;;;;;3.50;1.00;;;;;;;;5043880;28;11438;-78
2021/12/07 03:56:33;;;;;;;;;1.00;1.00;;;;;;;;5026536;28;11576;-78
2021/12/07 03:59:01;;;;;;;;;1.00;1.00;;;;;;;;5034790;28;11479;-78
2021/12/07 04:01:30;;;;;;;;;2.75;0.25;;;;;;;;5043236;28;11512;-78
2021/12/07 04:04:02;;;;;;;;;1.00;1.00;;;;;;;;5041766;28;12241;-77
2021/12/07 04:06:29;;;;;;;;;0.25;0.25;;;;;;;;5042673;28;11507;-78
2021/12/07 04:08:57;;;;;;;;;0.75;0.50;;;;;;;;5027329;28;11443;-77
2021/12/07 04:11:24;;;;;;;;;1.00;1.00;;;;;;;;5043308;28;11472;-77
2021/12/07 04:13:51;;;;;;;;;0.25;0.25;;;;;;;;5044157;28;11480;-77
2021/12/07 04:16:19;;;;;;;;;4.75;1.50;;;;;;;;5040785;28;12206;-78
2021/12/07 04:18:48;;;;;;;;;0.00;0.00;;;;;;;;5043494;28;11495;-77
2021/12/07 04:21:17;;;;;;;;;0.00;0.00;;;;;;;;5045235;28;11469;-77
2021/12/07 04:23:44;;;;;;;;;0.00;0.00;;;;;;;;5047526;28;11398;-77
2021/12/07 04:26:13;;;;;;;;;2.00;1.00;;;;;;;;5041218;28;11465;-77
2021/12/07 04:28:41;;;;;;;;;1.00;1.00;;;;;;;;5043064;28;11538;-77
2021/12/07 04:31:10;;;;;;;;;0.00;0.00;;;;;;;;5047513;28;11411;-78
2021/12/07 04:33:37;;;;;;;;;0.75;0.75;;;;;;;;5042798;28;11420;-77
2021/12/07 04:36:07;;;;;;;;;1.00;1.00;;;;;;;;5044159;28;11481;-78
2021/12/07 04:38:34;;;;;;;;;0.00;0.00;;;;;;;;5043853;28;11496;-77
2021/12/07 04:41:02;;;;;;;;;0.25;0.00;;;;;;;;5043071;28;11446;-77
2021/12/07 04:43:29;;;;;;;;;3.25;0.50;;;;;;;;5043734;28;11574;-77
2021/12/07 04:46:06;;;;;;;;;0.25;0.00;;;;;;;;5048948;28;11606;-78
2021/12/07 04:59:30;;;;;;;;;1.50;0.00;;;;;;;;5037196;28;11355;-78
2021/12/07 05:01:57;;;;;;;;;0.75;0.75;;;;;;;;5043465;28;11359;-79
2021/12/07 05:04:28;;;;;;;;;1.50;0.00;;;;;;;;5050085;28;11511;-77
2021/12/07 05:07:05;;;;;;;;;0.25;0.25;;;;;;;;5038599;28;11399;-79
2021/12/07 05:09:52;;;;;;;;;2.00;1.00;;;;;;;;5043378;28;11509;-79
2021/12/07 05:12:30;;;;;;;;;2.00;0.50;;;;;;;;5042111;28;11472;-78
2021/12/07 05:15:04;;;;;;;;;0.00;0.00;;;;;;;;5054206;28;11581;-78
2021/12/07 05:17:57;;;;;;;;;2.00;0.00;;;;;;;;5038505;28;11441;-79
2021/12/07 05:34:52;;;;;;;;;1.00;1.00;;;;;;;;5044087;28;11419;-80
2021/12/07 05:40:08;;;;;;;;;0.00;0.00;;;;;;;;5030564;28;11413;-78
2021/12/07 05:42:37;;;;;;;;;0.00;0.00;;;;;;;;5030763;28;11541;-81
2021/12/07 05:45:06;;;;;;;;;1.25;0.00;;;;;;;;5035541;28;11494;-77
2021/12/07 05:47:36;;;;;;;;;0.00;0.00;;;;;;;;5037448;28;11502;-82
2021/12/07 05:50:05;;;;;;;;;1.00;1.00;;;;;;;;5035459;28;11571;-79
2021/12/07 05:52:32;;;;;;;;;0.00;0.00;;;;;;;;5038218;28;11441;-74
2021/12/07 05:54:59;;;;;;;;;1.00;1.00;;;;;;;;5030585;28;11472;-77
2021/12/07 05:57:29;;;;;;;;;0.00;0.00;;;;;;;;5037997;28;11443;-75
2021/12/07 05:59:57;;;;;;;;;0.00;0.00;;;;;;;;5020427;28;11471;-77
2021/12/07 06:02:24;;;;;;;;;1.00;1.00;;;;;;;;5023461;28;11558;-76
2021/12/07 06:04:52;;;;;;;;;0.00;0.00;;;;;;;;5036331;28;11474;-78
2021/12/07 06:07:19;;;;;;;;;0.25;0.25;;;;;;;;5034000;28;11480;-81
2021/12/07 06:09:46;;;;;;;;;0.00;0.00;;;;;;;;5042339;28;11420;-81
2021/12/07 06:12:14;;;;;;;;;1.50;1.25;;;;;;;;5041909;28;12199;-77
2021/12/07 06:14:44;;;;;;;;;4.50;1.50;;;;;;;;5038189;28;11478;-80
2021/12/07 06:17:12;;;;;;;;;2.00;2.00;;;;;;;;5015777;28;12311;-79
2021/12/07 06:19:39;;;;;;;;;3.50;1.75;;;;;;;;5039629;28;11535;-77
2021/12/07 06:22:08;;;;;;;;;5.00;4.00;;;;;;;;5025816;28;13127;-71
2021/12/07 06:24:35;;;;;;;;;1.00;1.00;;;;;;;;5042801;28;11489;-74
2021/12/07 06:27:03;;;;;;;;;4.00;1.25;;;;;;;;5047948;28;11442;-73
2021/12/07 06:29:30;;;;;;;;;2.00;2.00;;;;;;;;5045121;28;11574;-75
2021/12/07 06:32:00;;;;;;;;;2.00;2.00;;;;;;;;5038877;28;11621;-75
2021/12/07 06:34:27;;;;;;;;;2.50;2.00;;;;;;;;5036331;28;11605;-76
2021/12/07 06:36:54;;;;;;;;;4.50;4.50;;;;;;;;5038486;28;11455;-75
2021/12/07 06:39:22;;;;;;;;;8.75;8.00;;;;;;;;5043933;28;11436;-76
2021/12/07 06:41:49;;;;;;;;;4.00;4.00;;;;;;;;5046436;28;11455;-76
2021/12/07 06:44:17;;;;;;;;;1.00;1.00;;;;;;;;5045861;28;11577;-76
2021/12/07 06:46:47;;;;;;;;;4.00;1.25;;;;;;;;5035516;28;11583;-75
2021/12/07 06:49:17;;;;;;;;;3.50;3.50;;;;;;;;5041064;28;11480;-76
2021/12/07 06:51:45;;;;;;;;;5.00;5.00;;;;;;;;5061258;28;11472;-76
2021/12/07 06:54:12;;;;;;;;;5.00;5.00;;;;;;;;5046729;28;11630;-77
2021/12/07 06:56:40;;;;;;;;;3.00;3.00;;;;;;;;5045464;28;11469;-77
2021/12/07 06:59:08;;;;;;;;;4.75;2.00;;;;;;;;5051302;28;11438;-77
2021/12/07 07:01:35;;;;;;;;;4.50;4.50;;;;;;;;5059053;28;12190;-76
2021/12/07 07:04:03;;;;;;;;;4.00;2.50;;;;;;;;5066914;28;11575;-76
2021/12/07 07:06:32;;;;;;;;;4.50;4.50;;;;;;;;5041190;28;11469;-76
2021/12/07 07:09:00;;;;;;;;;4.00;4.00;;;;;;;;5045380;28;11513;-76
2021/12/07 07:11:27;;;;;;;;;4.00;1.25;;;;;;;;5046127;28;11446;-75
2021/12/07 07:13:54;;;;;;;;;4.00;1.50;;;;;;;;5044956;28;11594;-75
2021/12/07 07:16:22;;;;;;;;;2.00;2.00;;;;;;;;5027361;28;11462;-77
2021/12/07 07:18:49;;;;;;;;;6.75;3.50;;;;;;;;5045253;28;11458;-76
2021/12/07 07:21:16;;;;;;;;;2.00;2.00;;;;;;;;5044912;28;11535;-78
2021/12/07 07:23:45;;;;;;;;;2.00;2.00;;;;;;;;5041575;28;11444;-76
2021/12/07 07:26:12;;;;;;;;;2.00;1.00;;;;;;;;5027013;28;11492;-75
2021/12/07 07:28:40;;;;;;;;;1.00;1.00;;;;;;;;5045785;28;11474;-75
2021/12/07 07:31:09;;;;;;;;;1.00;1.00;;;;;;;;5044149;28;11363;-77
2021/12/07 07:33:36;;;;;;;;;2.00;1.00;;;;;;;;5046285;28;12348;-76
2021/12/07 07:36:04;;;;;;;;;3.50;3.00;;;;;;;;5044170;28;11465;-75
2021/12/07 07:38:32;;;;;;;;;4.75;2.00;;;;;;;;5025218;28;11461;-75
2021/12/07 07:41:02;;;;;;;;;1.00;1.00;;;;;;;;5036143;28;11593;-75
2021/12/07 07:43:30;;;;;;;;;4.00;1.50;;;;;;;;5044897;28;11511;-75
2021/12/07 07:45:58;;;;;;;;;5.50;4.00;;;;;;;;5045522;28;11577;-76
2021/12/07 07:48:25;;;;;;;;;2.50;2.50;;;;;;;;5043927;28;11458;-76
2021/12/07 07:50:53;;;;;;;;;6.00;6.00;;;;;;;;5045654;28;11460;-77
2021/12/07 07:53:22;;;;;;;;;9.50;7.00;;;;;;;;5044108;28;11592;-75
2021/12/07 07:55:50;;;;;;;;;12.50;10.00;;;;;;;;5039931;28;11462;-75
2021/12/07 07:58:19;;;;;;;;;15.00;12.50;;;;;;;;5044878;28;11512;-77
2021/12/07 08:00:48;;;;;;;;;10.25;8.75;;;;;;;;5044412;28;11411;-76
2021/12/07 08:03:15;;;;;;;;;15.50;13.00;;;;;;;;5045939;28;11467;-76
2021/12/07 08:05:43;;;;;;;;;10.25;10.25;;;;;;;;5054004;28;11622;-76
2021/12/07 08:08:10;;;;;;;;;11.50;8.00;;;;;;;;5045132;28;11482;-76
2021/12/07 08:10:37;;;;;;;;;14.00;12.00;;;;;;;;5043946;28;11501;-75
2021/12/07 08:13:07;;;;;;;;;15.50;11.75;;;;;;;;5037525;28;11614;-74
2021/12/07 08:15:41;;;;;;;;;7.25;6.00;;;;;;;;5038923;28;11624;-75
2021/12/07 08:18:09;;;;;;;;;9.00;6.50;;;;;;;;5044363;28;11477;-75
2021/12/07 08:20:37;;;;;;;;;10.00;9.00;;;;;;;;5044864;28;11481;-74
2021/12/07 08:23:04;;;;;;;;;7.00;5.75;;;;;;;;5040915;28;11450;-75
2021/12/07 08:25:33;;;;;;;;;12.75;9.25;;;;;;;;5044151;28;11609;-75
2021/12/07 08:28:00;;;;;;;;;24.25;20.75;;;;;;;;5037631;28;11493;-75
2021/12/07 08:30:28;;;;;;;;;10.25;8.75;;;;;;;;5043023;28;11534;-75
2021/12/07 08:32:57;;;;;;;;;9.00;8.50;;;;;;;;5044317;28;11529;-77
2021/12/07 08:35:24;;;;;;;;;20.50;14.00;;;;;;;;5049131;28;11621;-79
2021/12/07 08:37:52;;;;;;;;;66.75;52.75;;;;;;;;5039390;28;11482;-83
2021/12/07 08:40:22;;;;;;;;;58.00;47.50;;;;;;;;5043519;28;11519;-78
2021/12/07 08:42:51;;;;;;;;;28.75;22.75;;;;;;;;5026982;28;11728;-79
2021/12/07 08:45:19;;;;;;;;;60.00;52.75;;;;;;;;5024478;28;11528;-78
2021/12/07 08:47:47;;;;;;;;;22.25;19.75;;;;;;;;5040545;28;11545;-79
2021/12/07 08:50:19;;;;;;;;;43.25;35.00;;;;;;;;5042299;28;12320;-78
2021/12/07 08:52:48;;;;;;;;;16.25;12.50;;;;;;;;5048869;28;11514;-77
2021/12/07 09:00:55;;;;;;;;;13.50;12.25;;;;;;;;5045512;28;11420;-78
2021/12/07 09:03:23;;;;;;;;;15.50;15.50;;;;;;;;5039421;28;11583;-77
2021/12/07 09:05:52;;;;;;;;;66.00;49.50;;;;;;;;5039803;28;11628;-77
2021/12/07 09:08:19;;;;;;;;;25.75;20.50;;;;;;;;5037293;28;11565;-79
2021/12/07 09:10:47;;;;;;;;;13.50;12.50;;;;;;;;5039287;28;11494;-81
2021/12/07 09:13:14;;;;;;;;;15.75;14.75;;;;;;;;5041679;28;11496;-76
2021/12/07 09:15:41;;;;;;;;;21.25;18.75;;;;;;;;5043034;28;11601;-79
2021/12/07 09:18:09;;;;;;;;;22.50;19.25;;;;;;;;5046798;28;11523;-79
2021/12/07 09:20:37;;;;;;;;;24.75;16.25;;;;;;;;5040200;28;11533;-78
2021/12/07 09:23:06;;;;;;;;;25.25;24.00;;;;;;;;5051688;28;11507;-79
2021/12/07 09:25:33;;;;;;;;;37.75;33.25;;;;;;;;5045027;28;11501;-80
2021/12/07 09:28:01;;;;;;;;;33.50;24.50;;;;;;;;5056615;28;11499;-79
2021/12/07 09:30:28;;;;;;;;;22.75;19.75;;;;;;;;5044272;28;11435;-79
2021/12/07 09:32:55;;;;;;;;;18.00;14.75;;;;;;;;5047804;28;11567;-80
2021/12/07 09:35:23;;;;;;;;;12.25;12.00;;;;;;;;5047218;28;11557;-79
2021/12/07 09:37:52;;;;;;;;;16.00;13.25;;;;;;;;5022472;28;12328;-79
2021/12/07 09:40:24;;;;;;;;;16.50;16.50;;;;;;;;5050667;28;11513;-79
2021/12/07 09:42:52;;;;;;;;;16.00;13.75;;;;;;;;5047496;28;11590;-79
2021/12/07 09:45:20;;;;;;;;;15.00;11.25;;;;;;;;5047494;28;11616;-79
2021/12/07 09:47:48;;;;;;;;;22.50;16.25;;;;;;;;5046073;28;11676;-79
2021/12/07 09:50:19;;;;;;;;;17.00;12.00;;;;;;;;5045638;28;11502;-79
2021/12/07 09:52:48;;;;;;;;;14.75;13.00;;;;;;;;5048237;28;11485;-79
2021/12/07 09:55:16;;;;;;;;;27.75;22.50;;;;;;;;5044217;28;11552;-79
2021/12/07 09:57:46;;;;;;;;;25.50;21.75;;;;;;;;5046736;28;11544;-79
2021/12/07 10:00:18;;;;;;;;;37.50;35.50;;;;;;;;5044971;28;11537;-79
2021/12/07 10:02:46;;;;;;;;;22.75;18.00;;;;;;;;5029238;28;11546;-79
2021/12/07 10:05:16;;;;;;;;;30.50;28.50;;;;;;;;5046644;28;11506;-79
2021/12/07 10:07:44;;;;;;;;;42.00;41.25;;;;;;;;5058742;28;11495;-78
2021/12/07 10:10:22;;;;;;;;;16.25;13.00;;;;;;;;5046670;28;11523;-79
2021/12/07 10:12:52;;;;;;;;;20.00;13.00;;;;;;;;5037828;28;11598;-79
2021/12/07 10:15:20;;;;;;;;;12.75;12.75;;;;;;;;5029785;28;11609;-79
2021/12/07 10:18:01;;;;;;;;;16.75;15.75;;;;;;;;5050709;28;11488;-79
2021/12/07 10:20:37;;;;;;;;;24.00;22.50;;;;;;;;5044832;28;12858;-79
2021/12/07 10:23:07;;;;;;;;;19.00;16.50;;;;;;;;5045870;28;11481;-79
2021/12/07 10:25:35;;;;;;;;;22.50;18.25;;;;;;;;5036140;28;11468;-79
2021/12/07 10:28:04;;;;;;;;;20.50;19.25;;;;;;;;5049072;28;11511;-79
2021/12/07 10:30:31;;;;;;;;;12.00;12.00;;;;;;;;5033223;28;11468;-79
2021/12/07 10:33:01;;;;;;;;;30.75;29.50;;;;;;;;5046496;28;11469;-79
2021/12/07 10:35:30;;;;;;;;;51.25;42.50;;;;;;;;5045960;28;11503;-78
2021/12/07 10:38:11;;;;;;;;;9.00;9.00;;;;;;;;5046397;28;11622;-80
2021/12/07 10:40:56;;;;;;;;;19.75;16.25;;;;;;;;5047741;28;11566;-79
2021/12/07 10:43:46;;;;;;;;;18.00;12.50;;;;;;;;5034575;28;11526;-79
2021/12/07 10:46:32;;;;;;;;;11.50;9.50;;;;;;;;5057695;28;11462;-79
2021/12/07 10:49:25;;;;;;;;;16.00;13.50;;;;;;;;5044798;28;11579;-79
2021/12/07 10:52:06;;;;;;;;;14.00;12.00;;;;;;;;5051374;28;11619;-79
2021/12/07 10:54:35;;;;;;;;;14.00;14.00;;;;;;;;5046153;28;11478;-80
2021/12/07 10:57:04;;;;;;;;;18.00;18.00;;;;;;;;5045196;28;11480;-79
2021/12/07 10:59:34;;;;;;;;;18.00;18.00;;;;;;;;5045944;28;12477;-79
2021/12/07 11:02:13;;;;;;;;;19.75;19.75;;;;;;;;5042058;28;11423;-80
2021/12/07 11:04:40;;;;;;;;;14.25;14.25;;;;;;;;5046734;28;11531;-79
2021/12/07 11:07:12;;;;;;;;;15.00;13.00;;;;;;;;5047357;28;11510;-79
2021/12/07 11:09:50;;;;;;;;;14.00;12.00;;;;;;;;5059717;28;11629;-79
2021/12/07 11:12:19;;;;;;;;;12.25;10.00;;;;;;;;5047019;28;11555;-79
2021/12/07 11:14:51;;;;;;;;;14.00;12.25;;;;;;;;5034871;28;11419;-77
2021/12/07 11:17:21;;;;;;;;;8.50;8.50;;;;;;;;5041436;28;11599;-77
2021/12/07 11:19:49;;;;;;;;;13.50;12.00;;;;;;;;5055225;28;11467;-77
2021/12/07 11:22:18;;;;;;;;;14.00;10.75;;;;;;;;5043394;28;11456;-76
2021/12/07 11:24:46;;;;;;;;;12.50;10.00;;;;;;;;5049937;28;11524;-77
2021/12/07 11:30:06;;;;;;;;;16.00;9.00;;;;;;;;5050940;28;11470;-76
2021/12/07 11:32:33;;;;;;;;;13.00;13.00;;;;;;;;5065773;28;11447;-76
2021/12/07 11:35:15;;;;;;;;;12.00;12.00;;;;;;;;5065078;28;11522;-77
2021/12/07 11:37:43;;;;;;;;;12.75;12.75;;;;;;;;5040833;28;11481;-77
2021/12/07 11:40:13;;;;;;;;;17.25;16.75;;;;;;;;5044945;28;11626;-77
2021/12/07 11:42:42;;;;;;;;;11.50;11.50;;;;;;;;5041873;28;11594;-77
2021/12/07 11:45:26;;;;;;;;;23.25;20.75;;;;;;;;5042119;28;11458;-78
2021/12/07 11:47:56;;;;;;;;;11.50;11.00;;;;;;;;5038718;28;11502;-76
2021/12/07 11:50:30;;;;;;;;;21.00;14.50;;;;;;;;5029876;28;11462;-78
2021/12/07 11:53:00;;;;;;;;;11.50;11.50;;;;;;;;5029873;28;11513;-76
2021/12/07 11:55:28;;;;;;;;;8.00;8.00;;;;;;;;5043569;28;11435;-77
2021/12/07 11:57:56;;;;;;;;;14.50;14.50;;;;;;;;5036782;28;11408;-77
2021/12/07 12:00:28;;;;;;;;;9.25;8.25;;;;;;;;5054560;28;11400;-76
2021/12/07 12:02:56;;;;;;;;;15.75;15.75;;;;;;;;5044940;28;11479;-73
2021/12/07 12:05:23;;;;;;;;;13.25;9.00;;;;;;;;5046684;28;11482;-77
2021/12/07 12:07:51;;;;;;;;;11.00;11.00;;;;;;;;5046997;28;12125;-73
2021/12/07 12:10:20;;;;;;;;;11.00;8.00;;;;;;;;5046090;28;11443;-76
2021/12/07 12:12:56;;;;;;;;;9.25;9.25;;;;;;;;5044162;28;11432;-75
2021/12/07 12:15:54;;;;;;;;;5.75;5.75;;;;;;;;5042721;28;11400;-76
2021/12/07 12:18:31;;;;;;;;;7.50;7.50;;;;;;;;5033469;28;11399;-77
2021/12/07 12:21:08;;;;;;;;;8.50;8.50;;;;;;;;5044811;28;11428;-75
2021/12/07 12:23:51;;;;;;;;;8.75;8.75;;;;;;;;5041474;28;11422;-78
2021/12/07 12:26:23;;;;;;;;;11.75;10.00;;;;;;;;5049045;28;11399;-77
2021/12/07 12:28:51;;;;;;;;;4.25;4.25;;;;;;;;5042174;28;11996;-77
2021/12/07 12:31:21;;;;;;;;;8.00;8.00;;;;;;;;5058453;28;12236;-77
2021/12/07 12:33:51;;;;;;;;;12.50;5.00;;;;;;;;5048852;28;11395;-74
2021/12/07 12:36:21;;;;;;;;;7.50;6.50;;;;;;;;5045723;28;11425;-78
2021/12/07 12:38:57;;;;;;;;;6.00;5.00;;;;;;;;5046973;28;11514;-75
2021/12/07 12:41:27;;;;;;;;;7.25;7.25;;;;;;;;5041965;28;11482;-76
2021/12/07 12:43:57;;;;;;;;;8.50;6.00;;;;;;;;5042515;28;11443;-75
2021/12/07 12:46:27;;;;;;;;;5.25;5.25;;;;;;;;5034207;28;11421;-75
2021/12/07 12:48:58;;;;;;;;;6.75;5.00;;;;;;;;5042909;28;11415;-76
2021/12/07 12:51:28;;;;;;;;;5.00;5.00;;;;;;;;5043988;28;11529;-76
2021/12/07 12:53:55;;;;;;;;;5.00;5.00;;;;;;;;5043283;28;11421;-77
2021/12/07 12:56:25;;;;;;;;;19.75;18.25;;;;;;;;5054901;28;11410;-75
2021/12/07 12:58:54;;;;;;;;;13.00;10.00;;;;;;;;5063823;28;11498;-76
2021/12/07 13:01:27;;;;;;;;;14.00;12.50;;;;;;;;5059650;28;12081;-76
2021/12/07 13:04:00;;;;;;;;;12.25;12.25;;;;;;;;5043558;28;11455;-75
2021/12/07 13:06:49;;;;;;;;;38.75;34.50;;;;;;;;5041595;28;11446;-75
2021/12/07 13:09:32;;;;;;;;;9.50;5.75;;;;;;;;5039468;28;11554;-76
2021/12/07 13:12:02;;;;;;;;;13.00;11.00;;;;;;;;5043059;28;11402;-75
2021/12/07 13:14:37;;;;;;;;;7.25;5.00;;;;;;;;5046114;28;12315;-75
2021/12/07 13:17:09;;;;;;;;;11.50;9.00;;;;;;;;5053088;28;11398;-77
2021/12/07 13:20:02;;;;;;;;;4.50;4.50;;;;;;;;5050413;28;11481;-74
2021/12/07 13:22:35;;;;;;;;;5.25;5.25;;;;;;;;5040406;28;11432;-75
2021/12/07 13:25:07;;;;;;;;;30.50;27.25;;;;;;;;5033318;28;11395;-76
2021/12/07 13:27:35;;;;;;;;;8.50;6.00;;;;;;;;5063353;28;11445;-77
2021/12/07 13:30:04;;;;;;;;;15.75;15.75;;;;;;;;5051467;28;12195;-74
2021/12/07 13:32:34;;;;;;;;;6.00;4.00;;;;;;;;5044102;28;11541;-74
2021/12/07 13:35:04;;;;;;;;;5.00;3.00;;;;;;;;5049331;28;11216;-75
2021/12/07 13:37:50;;;;;;;;;7.50;6.00;;;;;;;;5042944;28;11436;-75
2021/12/07 13:40:21;;;;;;;;;13.75;10.00;;;;;;;;5043548;28;11426;-74
2021/12/07 13:42:52;;;;;;;;;5.75;5.00;;;;;;;;5043921;28;11530;-75
2021/12/07 13:45:21;;;;;;;;;21.00;15.75;;;;;;;;5042249;28;11387;-75
2021/12/07 13:47:52;;;;;;;;;22.00;20.00;;;;;;;;5043576;28;11461;-75
2021/12/07 13:50:23;;;;;;;;;6.00;6.00;;;;;;;;5024272;28;11485;-75
2021/12/07 13:52:53;;;;;;;;;10.25;8.00;;;;;;;;5038470;28;11532;-74
2021/12/07 13:55:23;;;;;;;;;70.50;56.00;;;;;;;;5040437;28;11410;-74
2021/12/07 13:57:52;;;;;;;;;5.75;5.75;;;;;;;;5043082;28;11563;-75
2021/12/07 14:00:21;;;;;;;;;20.25;18.00;;;;;;;;5043012;28;11401;-75
2021/12/07 14:02:55;;;;;;;;;7.00;7.00;;;;;;;;5041459;28;11451;-74
2021/12/07 14:05:26;;;;;;;;;6.75;6.75;;;;;;;;5043189;28;11310;-73
2021/12/07 14:07:54;;;;;;;;;13.25;9.25;;;;;;;;5038029;28;11197;-74
2021/12/07 14:10:26;;;;;;;;;20.25;18.75;;;;;;;;5033641;28;11178;-73
2021/12/07 14:12:55;;;;;;;;;19.00;15.50;;;;;;;;5060362;28;11505;-74
2021/12/07 14:15:24;;;;;;;;;13.50;5.00;;;;;;;;5047914;28;11435;-73
2021/12/07 14:17:55;;;;;;;;;3.00;1.00;;;;;;;;5028656;28;11066;-75
2021/12/07 14:20:31;;;;;;;;;4.75;4.75;;;;;;;;5045786;28;11090;-74
2021/12/07 14:22:59;;;;;;;;;5.75;1.75;;;;;;;;5036389;28;11110;-75
2021/12/07 14:25:26;;;;;;;;;3.00;3.00;;;;;;;;5036009;28;11033;-76
2021/12/07 14:27:55;;;;;;;;;5.00;5.00;;;;;;;;5029476;28;11163;-74
2021/12/07 14:30:23;;;;;;;;;3.50;2.00;;;;;;;;5033632;28;10923;-75
2021/12/07 14:32:50;;;;;;;;;1.50;1.50;;;;;;;;5032191;28;11767;-75
2021/12/07 14:35:21;;;;;;;;;2.00;2.00;;;;;;;;5013619;28;12177;-76
2021/12/07 14:37:48;;;;;;;;;2.00;2.00;;;;;;;;5042755;28;11183;-77
2021/12/07 14:40:16;;;;;;;;;3.00;2.25;;;;;;;;5036182;28;11097;-75
2021/12/07 14:42:43;;;;;;;;;2.00;2.00;;;;;;;;5029219;28;11216;-75
2021/12/07 14:45:11;;;;;;;;;5.00;5.00;;;;;;;;5036609;28;11126;-75
2021/12/07 14:47:38;;;;;;;;;2.75;2.75;;;;;;;;5025701;28;11209;-76
2021/12/07 14:50:06;;;;;;;;;3.25;1.50;;;;;;;;5031441;28;11070;-76
2021/12/07 14:52:36;;;;;;;;;3.75;1.25;;;;;;;;5034378;28;11042;-76
2021/12/07 14:55:05;;;;;;;;;6.00;2.00;;;;;;;;5040935;28;11139;-76
2021/12/07 14:57:35;;;;;;;;;4.50;3.25;;;;;;;;5037363;28;11104;-77
2021/12/07 15:00:03;;;;;;;;;2.75;1.00;;;;;;;;5043755;28;11324;-76
2021/12/07 15:02:33;;;;;;;;;2.75;1.25;;;;;;;;5029870;28;11774;-76
2021/12/07 15:05:05;;;;;;;;;4.00;4.00;;;;;;;;5041234;28;11071;-76
2021/12/07 15:07:35;;;;;;;;;4.00;1.25;;;;;;;;5040631;28;11355;-76
2021/12/07 15:10:05;;;;;;;;;3.00;1.50;;;;;;;;5036086;28;11151;-76
2021/12/07 15:12:36;;;;;;;;;5.00;2.00;;;;;;;;5035423;28;11840;-76
2021/12/07 15:15:04;;;;;;;;;4.50;2.00;;;;;;;;5038836;28;12413;-76
2021/12/07 15:17:32;;;;;;;;;1.25;1.25;;;;;;;;5040183;28;11094;-76
2021/12/07 15:20:01;;;;;;;;;1.75;1.75;;;;;;;;5042208;28;11077;-75
2021/12/07 15:22:28;;;;;;;;;1.50;1.50;;;;;;;;5041713;28;11076;-76
2021/12/07 15:24:58;;;;;;;;;2.00;2.00;;;;;;;;5041411;28;11154;-74
2021/12/07 15:27:26;;;;;;;;;2.00;1.00;;;;;;;;5052734;28;11189;-73
2021/12/07 15:29:55;;;;;;;;;2.00;1.00;;;;;;;;5033320;28;11749;-76
2021/12/07 15:32:23;;;;;;;;;1.00;1.00;;;;;;;;5028927;28;10834;-76
2021/12/07 15:34:53;;;;;;;;;1.00;1.00;;;;;;;;5056484;28;11076;-76
2021/12/07 15:37:23;;;;;;;;;5.00;1.50;;;;;;;;5057268;28;11120;-76
2021/12/07 15:39:52;;;;;;;;;0.50;0.50;;;;;;;;5053672;28;10964;-76
2021/12/07 15:42:23;;;;;;;;;1.25;1.25;;;;;;;;5039431;28;12098;-76
2021/12/07 15:44:53;;;;;;;;;2.75;2.00;;;;;;;;5062476;28;11183;-76
2021/12/07 15:47:22;;;;;;;;;1.00;1.00;;;;;;;;5043823;28;11052;-76
2021/12/07 15:49:52;;;;;;;;;2.00;2.00;;;;;;;;5027391;28;11002;-76
2021/12/07 15:52:22;;;;;;;;;2.50;1.00;;;;;;;;5029934;28;11046;-76
2021/12/07 15:54:57;;;;;;;;;1.75;1.75;;;;;;;;5053415;28;11028;-76
2021/12/07 15:57:29;;;;;;;;;2.00;1.75;;;;;;;;5048088;28;11175;-76
2021/12/07 15:59:58;;;;;;;;;1.00;1.00;;;;;;;;5062235;28;11054;-76
2021/12/07 16:02:26;;;;;;;;;5.50;2.50;;;;;;;;5042275;28;11083;-76
2021/12/07 16:05:06;;;;;;;;;0.75;0.75;;;;;;;;5044045;28;11165;-77
2021/12/07 16:07:33;;;;;;;;;3.25;1.00;;;;;;;;5045107;28;10974;-76
2021/12/07 16:10:06;;;;;;;;;5.00;2.00;;;;;;;;5043798;28;11123;-76
2021/12/07 16:12:35;;;;;;;;;3.25;1.00;;;;;;;;5044746;28;10981;-76
2021/12/07 16:15:12;;;;;;;;;3.00;2.00;;;;;;;;5045219;28;11093;-76
2021/12/07 16:17:40;;;;;;;;;0.00;0.00;;;;;;;;5043837;28;11227;-76
2021/12/07 16:20:10;;;;;;;;;5.00;2.00;;;;;;;;5056940;28;10991;-76
2021/12/07 16:22:38;;;;;;;;;2.00;1.50;;;;;;;;5036706;28;11081;-76